Impacts METAR Board
IDs:

KCLE - Cleveland/Hopkins In, OH, US

Updated at: 2000 UTC 02 Oct 2022
Potential Impact None Slight Moderate High
Time 02/08Z 02/09Z 02/10Z 02/11Z 02/12Z 02/13Z 02/14Z 02/15Z 02/16Z 02/17Z 02/18Z 02/19Z 02/20Z
Temp61 60 59 59 58 59 58 58 57 57 57 57 57
Dewpt50 52 50 48 48 49 50 49 48 48 47 46 45
Altim30.11 30.12 30.13 30.15 30.17 30.18 30.21 30.23 30.24 30.25 30.25 30.25 30.25
VIS10 10 10 10 10 10 10 10 10 10 10 10 10
CIG32 27 29 29 29 26 19 19 17 20 20 21 22
CoverOVCOVCOVCBKNOVCOVCOVCOVCOVCOVCOVCOVCOVC
FltCatVFRMVFRMVFRMVFRMVFRMVFRMVFRMVFRMVFRMVFRMVFRMVFRMVFR
WX--------------------------
WDir50404040405040404040403030
WSpd19 20 21 14 18 18 20 18 17 22 19 20 18
WGst26 27 25 25 27 23 29 23 27 25 27 26 23
Raw hourly METARs
KCLE 020751Z 05019G26KT 10SM SCT024 OVC032 16/10 A3011 RMK AO2 PK WND 06026/0744 SLP208 T01610100 $
KCLE 020851Z 04020G27KT 10SM SCT021 BKN027 OVC034 16/11 A3012 RMK AO2 PK WND 03031/0841 SLP212 T01560111 53008 $
KCLE 020951Z 04021G25KT 10SM SCT022 BKN029 OVC032 15/10 A3013 RMK AO2 PK WND 05032/0928 SLP219 T01500100 $
KCLE 021051Z 04014G25KT 10SM BKN029 15/09 A3015 RMK AO2 PK WND 03028/0953 SLP225 T01500089 $
KCLE 021151Z 04018G27KT 10SM OVC029 14/09 A3017 RMK AO2 PK WND 04027/1126 SLP230 T01440089 10161 20144 51016 $
KCLE 021251Z 05018G23KT 10SM OVC026 15/09 A3018 RMK AO2 PK WND 04027/1217 SLP236 T01500094 $
KCLE 021351Z 04020G29KT 10SM OVC019 14/10 A3021 RMK AO2 PK WND 02030/1302 SLP244 T01440100 $
KCLE 021451Z 04018G23KT 10SM OVC019 14/09 A3023 RMK AO2 PK WND 02032/1413 SLP251 T01440094 53021 $
KCLE 021551Z 04017G27KT 10SM OVC017 14/09 A3024 RMK AO2 PK WND 03028/1541 SLP256 T01390089 $
KCLE 021651Z 04022G25KT 10SM OVC020 14/09 A3025 RMK AO2 PK WND 04027/1629 SLP258 T01390089 $
KCLE 021751Z 04019G27KT 10SM OVC020 14/08 A3025 RMK AO2 PK WND 03028/1700 SLP260 T01390083 10150 20133 51008 $
KCLE 021851Z 03020G26KT 10SM OVC021 14/08 A3025 RMK AO2 PK WND 02028/1837 SLP258 T01390078 $
KCLE 021951Z 03018G23KT 10SM OVC022 14/07 A3025 RMK AO2 PK WND 04028/1930 SLP260 T01390072 $



Page loaded:  20:22 UTC  |   01:22 PM Pacific  |   02:22 PM Mountain  |   03:22 PM Central  |   04:22 PM Eastern

 

ADVISORIES

FORECASTS

FORECASTS

OBSERVATIONS

USER TOOLS

ABOUT US